Time;durP1;ratioP1;P1;durP2;ratioP2;P2;SDS_P1;SDS_P2;PMS_P1;PMS_P2;Temp;Humidity;BMP_temperature;BMP_pressure;BME280_temperature;BME280_humidity;BME280_pressure;Samples;Min_cycle;Max_cycle;Signal;HPM_P1;HPM_P2
2022/10/17 00:01:11;;;;;;;8.13;2.30;;;20.70;83.20;;;;;;5028069;28;20108;-64
2022/10/17 00:03:39;;;;;;;7.95;2.03;;;20.70;83.20;;;;;;5029422;28;20071;-64
2022/10/17 00:06:12;;;;;;;7.72;2.15;;;20.70;83.20;;;;;;5028402;28;20051;-64
2022/10/17 00:08:41;;;;;;;7.70;2.28;;;20.80;83.20;;;;;;5029675;28;20507;-64
2022/10/17 00:11:21;;;;;;;8.27;2.40;;;20.80;83.20;;;;;;5028295;28;20033;-64
2022/10/17 00:13:53;;;;;;;6.63;1.92;;;20.70;83.10;;;;;;5030031;28;20056;-63
2022/10/17 00:16:35;;;;;;;8.73;2.50;;;20.80;83.00;;;;;;5029716;28;20550;-64
2022/10/17 00:19:04;;;;;;;;;;;20.70;82.80;;;;;;5012026;28;20535;-64
2022/10/17 00:21:32;;;;;;;10.23;1.95;;;20.70;82.70;;;;;;5029484;28;19911;-64
2022/10/17 00:24:01;;;;;;;7.10;1.85;;;20.70;82.50;;;;;;5029609;28;20032;-64
2022/10/17 00:26:29;;;;;;;6.18;1.90;;;20.70;82.40;;;;;;5029476;28;20021;-64
2022/10/17 00:28:58;;;;;;;6.93;1.70;;;20.70;82.00;;;;;;5028013;28;20036;-64
2022/10/17 00:31:26;;;;;;;5.95;1.52;;;20.70;81.70;;;;;;5027618;28;20079;-64
2022/10/17 00:33:54;;;;;;;10.55;2.00;;;20.70;81.40;;;;;;5029064;28;20417;-64
2022/10/17 00:36:27;;;;;;;6.10;1.77;;;20.70;81.20;;;;;;5028635;28;20026;-64
2022/10/17 00:38:58;;;;;;;7.50;1.75;;;20.70;81.10;;;;;;5029361;28;20021;-64
2022/10/17 00:41:30;;;;;;;6.05;1.63;;;20.70;81.00;;;;;;5027727;28;20063;-64
2022/10/17 00:44:26;;;;;;;7.47;2.05;;;20.70;80.80;;;;;;5029048;28;20487;-64
2022/10/17 00:46:55;;;;;;;7.10;1.90;;;20.70;80.90;;;;;;5027042;28;20202;-64
2022/10/17 00:49:26;;;;;;;6.72;1.60;;;20.70;80.80;;;;;;5028037;28;20384;-65
2022/10/17 00:52:04;;;;;;;7.93;1.80;;;20.70;80.90;;;;;;5027875;28;20121;-64
2022/10/17 00:54:40;;;;;;;6.78;1.70;;;20.70;80.90;;;;;;5030110;28;20037;-64
2022/10/17 00:57:09;;;;;;;9.15;2.03;;;20.70;80.70;;;;;;5033112;28;20033;-64
2022/10/17 00:59:39;;;;;;;8.55;1.88;;;20.70;80.50;;;;;;5015486;28;20431;-64
2022/10/17 01:02:12;;;;;;;5.18;1.65;;;20.70;80.40;;;;;;5014794;28;20064;-64
2022/10/17 01:04:43;;;;;;;7.72;2.00;;;20.70;80.10;;;;;;5033170;28;20326;-64
2022/10/17 01:07:13;;;;;;;6.60;1.67;;;20.70;80.10;;;;;;5033149;28;20650;-64
2022/10/17 01:09:42;;;;;;;7.43;1.67;;;20.70;80.00;;;;;;5033213;28;20093;-64
2022/10/17 01:12:23;;;;;;;8.50;2.00;;;20.70;79.90;;;;;;5015419;28;20037;-64
2022/10/17 01:15:01;;;;;;;10.45;2.50;;;20.70;79.80;;;;;;5032207;28;20084;-64
2022/10/17 01:17:52;;;;;;;7.25;1.80;;;20.70;79.70;;;;;;5030627;28;20030;-64
2022/10/17 01:20:56;;;;;;;5.75;1.88;;;20.70;79.50;;;;;;5032034;28;20049;-64
2022/10/17 01:23:27;;;;;;;5.80;1.70;;;20.70;79.50;;;;;;5031365;28;20042;-65
2022/10/17 01:26:30;;;;;;;6.88;1.85;;;20.70;79.30;;;;;;5031665;28;20079;-64
2022/10/17 01:29:29;;;;;;;6.63;1.65;;;20.70;79.20;;;;;;5048141;28;20201;-64
2022/10/17 01:32:01;;;;;;;6.30;1.60;;;20.70;79.20;;;;;;5031921;28;20029;-64
2022/10/17 01:34:44;;;;;;;8.38;1.98;;;20.70;78.90;;;;;;5032071;28;20037;-64
2022/10/17 01:37:25;;;;;;;;;;;20.70;78.70;;;;;;5048575;28;20034;-64
2022/10/17 01:40:15;;;;;;;7.15;2.05;;;20.70;78.70;;;;;;5031249;28;19958;-64
2022/10/17 01:42:55;;;;;;;8.48;1.77;;;20.70;78.70;;;;;;5047580;28;20185;-64
2022/10/17 01:45:40;;;;;;;6.85;1.50;;;20.70;78.60;;;;;;5047284;28;20033;-64
2022/10/17 01:48:19;;;;;;;6.65;1.60;;;20.60;78.50;;;;;;5030514;28;20033;-64
2022/10/17 01:51:10;;;;;;;5.55;1.55;;;20.70;78.40;;;;;;5047493;28;20029;-64
2022/10/17 01:54:01;;;;;;;6.00;1.47;;;20.70;78.30;;;;;;5031038;28;20025;-65
2022/10/17 01:56:33;;;;;;;8.43;2.13;;;20.70;78.30;;;;;;5017965;28;20025;-64
2022/10/17 01:59:10;;;;;;;6.10;1.50;;;20.70;78.10;;;;;;5050176;28;20431;-64
2022/10/17 02:01:41;;;;;;;9.32;1.80;;;20.70;78.20;;;;;;5050284;28;20040;-64
2022/10/17 02:04:10;;;;;;;6.80;1.65;;;20.70;78.20;;;;;;5051514;28;20120;-63
2022/10/17 02:06:39;;;;;;;5.18;1.42;;;20.70;78.30;;;;;;5050218;28;20041;-64
2022/10/17 02:09:19;;;;;;;7.57;2.08;;;20.70;78.20;;;;;;5050612;28;20357;-65
2022/10/17 02:12:01;;;;;;;5.47;1.65;;;20.70;78.00;;;;;;5052238;28;20478;-64
2022/10/17 02:14:36;;;;;;;5.68;1.88;;;20.70;77.90;;;;;;5050489;28;20036;-64
2022/10/17 02:18:02;;;;;;;10.40;1.70;;;20.70;77.70;;;;;;5049622;28;20029;-64
2022/10/17 02:20:51;;;;;;;6.55;1.80;;;20.70;77.50;;;;;;4977327;28;20124;-64
2022/10/17 02:23:45;;;;;;;7.45;2.25;;;20.70;77.50;;;;;;5048733;28;20033;-64
2022/10/17 02:26:52;;;;;;;10.32;1.90;;;20.70;77.50;;;;;;5050355;28;20518;-64
2022/10/17 02:29:25;;;;;;;6.57;1.63;;;20.70;77.50;;;;;;5050743;28;20091;-64
2022/10/17 02:32:08;;;;;;;5.95;1.70;;;20.70;77.50;;;;;;5051172;28;20045;-64
2022/10/17 02:34:49;;;;;;;7.63;1.70;;;20.70;77.50;;;;;;5050333;28;20064;-64
2022/10/17 02:37:22;;;;;;;9.50;1.70;;;20.70;77.40;;;;;;5050287;28;20063;-64
2022/10/17 02:39:51;;;;;;;7.97;1.67;;;20.70;77.30;;;;;;5050634;28;20491;-63
2022/10/17 02:42:23;;;;;;;6.93;1.70;;;20.70;77.30;;;;;;5050100;28;20079;-64
2022/10/17 02:44:54;;;;;;;7.60;1.40;;;20.70;77.40;;;;;;5050284;28;20060;-64
2022/10/17 02:48:06;;;;;;;5.75;1.55;;;20.70;77.40;;;;;;5049166;28;20132;-66
2022/10/17 02:50:52;;;;;;;6.57;1.55;;;20.70;77.30;;;;;;5049664;28;20025;-64
2022/10/17 02:53:37;;;;;;;7.72;1.50;;;20.70;77.20;;;;;;5050465;28;20488;-64
2022/10/17 02:56:20;;;;;;;7.13;2.08;;;20.70;77.10;;;;;;5049789;28;20032;-64
2022/10/17 02:58:56;;;;;;;6.43;1.48;;;20.70;77.10;;;;;;5051374;28;20025;-64
2022/10/17 03:01:25;;;;;;;7.82;1.80;;;20.70;76.90;;;;;;5049224;28;20051;-63
2022/10/17 03:04:06;;;;;;;9.00;1.95;;;20.70;76.90;;;;;;5049282;28;20399;-64
2022/10/17 03:06:35;;;;;;;7.30;1.40;;;20.70;76.80;;;;;;5050998;28;20051;-64
2022/10/17 03:09:04;;;;;;;6.40;1.70;;;20.80;76.80;;;;;;5049548;28;20056;-64
2022/10/17 03:11:33;;;;;;;7.47;2.05;;;20.70;76.70;;;;;;5049514;28;20131;-64
2022/10/17 03:14:01;;;;;;;6.93;1.70;;;20.80;76.70;;;;;;5049096;28;20055;-64
2022/10/17 03:16:30;;;;;;;7.80;1.77;;;20.80;76.70;;;;;;5047983;28;20062;-64
2022/10/17 03:18:58;;;;;;;7.45;1.83;;;20.70;76.50;;;;;;5039602;28;20025;-64
2022/10/17 03:21:26;;;;;;;10.85;1.95;;;20.80;76.60;;;;;;5030645;28;20065;-64
2022/10/17 03:23:56;;;;;;;9.98;1.98;;;20.70;76.50;;;;;;5029224;28;20029;-64
2022/10/17 03:26:24;;;;;;;8.05;1.85;;;20.70;76.50;;;;;;5029014;28;20042;-64
2022/10/17 03:28:53;;;;;;;9.52;2.13;;;20.70;76.50;;;;;;5013137;28;20026;-64
2022/10/17 03:31:22;;;;;;;8.68;1.90;;;20.70;76.60;;;;;;5029328;28;20029;-64
2022/10/17 03:33:52;;;;;;;8.50;1.60;;;20.70;76.60;;;;;;5029219;28;20448;-63
2022/10/17 03:36:21;;;;;;;10.68;2.10;;;20.80;76.60;;;;;;5030972;28;20037;-63
2022/10/17 03:38:54;;;;;;;11.07;1.88;;;20.70;76.50;;;;;;5035104;28;20021;-63
2022/10/17 03:41:23;;;;;;;8.10;2.10;;;20.70;76.50;;;;;;5032639;28;20071;-64
2022/10/17 03:43:53;;;;;;;5.72;1.50;;;20.80;77.00;;;;;;5049313;28;20036;-64
2022/10/17 03:46:23;;;;;;;10.30;1.80;;;20.70;76.20;;;;;;5048835;28;20043;-64
2022/10/17 03:48:51;;;;;;;9.48;1.55;;;20.70;76.20;;;;;;5032551;28;20025;-63
2022/10/17 03:51:20;;;;;;;8.18;1.75;;;20.70;76.30;;;;;;5032909;28;20032;-64
2022/10/17 03:53:53;;;;;;;8.32;1.58;;;20.70;76.30;;;;;;5049342;28;20029;-64
2022/10/17 03:56:24;;;;;;;6.47;1.58;;;20.70;76.30;;;;;;5049325;28;20025;-64
2022/10/17 03:58:59;;;;;;;9.18;1.67;;;20.70;76.10;;;;;;5033533;28;20029;-64
2022/10/17 04:01:30;;;;;;;8.15;1.60;;;20.70;76.10;;;;;;5048695;28;20029;-64
2022/10/17 04:03:58;;;;;;;6.93;1.88;;;20.70;76.10;;;;;;5049620;28;20025;-64
2022/10/17 04:06:30;;;;;;;9.10;1.70;;;20.70;76.10;;;;;;5032590;28;20399;-64
2022/10/17 04:09:00;;;;;;;8.13;1.77;;;20.70;76.10;;;;;;5034084;28;20041;-64
2022/10/17 04:11:35;;;;;;;7.78;1.52;;;20.70;76.00;;;;;;5013366;28;20436;-64
2022/10/17 04:14:05;;;;;;;10.15;2.08;;;20.70;76.00;;;;;;5028543;28;20117;-64
2022/10/17 04:16:33;;;;;;;7.88;1.98;;;20.70;75.90;;;;;;5027841;28;20030;-64
2022/10/17 04:19:05;;;;;;;7.95;1.77;;;20.70;75.70;;;;;;5028124;28;20036;-64
2022/10/17 04:21:41;;;;;;;8.00;1.77;;;20.80;75.70;;;;;;5028663;28;20056;-64
2022/10/17 04:24:11;;;;;;;10.23;1.67;;;20.80;75.70;;;;;;5029819;28;20421;-64
2022/10/17 04:26:57;;;;;;;5.90;1.50;;;20.80;75.60;;;;;;5029478;28;20507;-65
2022/10/17 04:29:30;;;;;;;7.82;1.67;;;20.80;75.30;;;;;;5045069;28;20032;-64
2022/10/17 04:32:07;;;;;;;4.82;1.63;;;20.70;75.30;;;;;;5037349;28;20041;-64
2022/10/17 04:34:43;;;;;;;6.05;1.67;;;20.70;75.20;;;;;;5028194;28;20029;-64
2022/10/17 04:37:12;;;;;;;6.32;1.33;;;20.70;75.00;;;;;;5027907;28;20513;-64
2022/10/17 04:39:40;;;;;;;8.43;1.70;;;20.70;75.00;;;;;;5028166;28;20102;-63
2022/10/17 04:42:08;;;;;;;9.35;1.80;;;20.70;75.00;;;;;;5011347;28;20057;-64
2022/10/17 04:44:37;;;;;;;6.47;1.92;;;20.70;75.10;;;;;;5012007;28;20095;-64
2022/10/17 04:47:07;;;;;;;7.43;2.15;;;20.70;75.10;;;;;;5027170;28;20079;-64
2022/10/17 04:49:35;;;;;;;6.47;1.60;;;20.70;75.10;;;;;;5028079;28;20053;-64
2022/10/17 04:52:10;;;;;;;7.80;1.70;;;20.70;75.10;;;;;;5029279;28;20030;-63
2022/10/17 04:54:41;;;;;;;8.40;1.70;;;20.70;75.00;;;;;;5012104;28;20083;-64
2022/10/17 04:57:11;;;;;;;7.93;2.60;;;20.70;74.90;;;;;;5029143;28;20034;-64
2022/10/17 04:59:40;;;;;;;9.05;1.90;;;20.70;74.80;;;;;;5011963;28;20030;-64
2022/10/17 05:02:32;;;;;;;;;;;20.70;74.80;;;;;;5027380;28;20038;-63
2022/10/17 05:05:03;;;;;;;7.88;1.40;;;20.70;74.50;;;;;;5028039;28;19944;-64
2022/10/17 05:07:31;;;;;;;6.00;1.73;;;20.70;74.40;;;;;;5011194;28;20072;-64
2022/10/17 05:10:03;;;;;;;6.00;1.63;;;20.70;74.40;;;;;;5027880;28;20025;-64
2022/10/17 05:12:32;;;;;;;7.55;1.70;;;20.70;74.30;;;;;;5027478;28;20065;-63
2022/10/17 05:15:01;;;;;;;7.55;1.73;;;20.70;74.20;;;;;;5027790;28;20373;-64
2022/10/17 05:17:31;;;;;;;7.78;1.92;;;20.70;74.10;;;;;;5026895;28;20029;-64
2022/10/17 05:20:00;;;;;;;7.28;1.60;;;20.70;74.10;;;;;;5027672;28;20021;-63
2022/10/17 05:22:31;;;;;;;7.97;1.48;;;20.70;74.00;;;;;;5027669;28;20033;-64
2022/10/17 05:25:00;;;;;;;7.32;1.65;;;20.70;74.10;;;;;;5035176;28;20029;-64
2022/10/17 05:27:28;;;;;;;9.40;1.80;;;20.70;73.90;;;;;;5047075;28;20029;-64
2022/10/17 05:29:56;;;;;;;6.55;1.20;;;20.70;73.80;;;;;;5047754;28;20025;-64
2022/10/17 05:32:28;;;;;;;8.27;1.73;;;20.70;73.70;;;;;;5030785;28;20427;-64
2022/10/17 05:34:57;;;;;;;6.57;1.48;;;20.70;73.70;;;;;;5047721;28;20033;-64
2022/10/17 05:37:28;;;;;;;8.85;1.38;;;20.70;73.80;;;;;;5047454;28;20036;-64
2022/10/17 05:39:57;;;;;;;13.15;1.83;;;20.70;73.60;;;;;;5048612;28;20133;-64
2022/10/17 05:42:26;;;;;;;6.15;1.35;;;20.70;73.70;;;;;;5034355;28;20056;-64
2022/10/17 05:44:55;;;;;;;7.47;1.35;;;20.70;73.60;;;;;;5051257;28;20095;-64
2022/10/17 05:47:23;;;;;;;6.30;1.60;;;20.70;73.50;;;;;;5050144;28;20044;-66
2022/10/17 05:49:52;;;;;;;6.38;1.38;;;20.70;73.50;;;;;;5051631;28;20044;-63
2022/10/17 05:52:30;;;;;;;4.65;1.35;;;20.70;73.50;;;;;;5050871;28;20048;-63
2022/10/17 05:55:13;;;;;;;9.50;1.88;;;20.70;73.40;;;;;;5050915;28;20521;-63
2022/10/17 05:57:42;;;;;;;5.43;1.35;;;20.70;73.40;;;;;;5050463;28;20361;-63
2022/10/17 06:00:15;;;;;;;6.70;1.67;;;20.70;73.40;;;;;;5034963;28;20424;-64
2022/10/17 06:02:48;;;;;;;8.65;1.55;;;20.70;73.40;;;;;;5034992;28;20033;-63
2022/10/17 06:05:20;;;;;;;5.82;1.40;;;20.70;73.40;;;;;;5051254;28;20082;-63
2022/10/17 06:07:51;;;;;;;4.03;1.30;;;20.70;73.40;;;;;;5052396;28;20120;-64
2022/10/17 06:10:20;;;;;;;7.22;1.70;;;20.70;73.40;;;;;;5034763;28;20028;-63
2022/10/17 06:12:49;;;;;;;3.95;1.35;;;20.70;73.30;;;;;;5051096;28;20037;-63
2022/10/17 06:15:17;;;;;;;8.82;1.63;;;20.70;73.10;;;;;;5050227;28;20037;-63
2022/10/17 06:17:51;;;;;;;5.80;1.48;;;20.80;73.10;;;;;;5050949;28;20551;-63
2022/10/17 06:20:20;;;;;;;8.02;1.50;;;20.80;73.10;;;;;;5051373;28;20036;-63
2022/10/17 06:22:48;;;;;;;6.78;1.33;;;20.80;73.10;;;;;;5051087;28;20025;-63
2022/10/17 06:25:26;;;;;;;5.60;1.40;;;20.80;73.10;;;;;;5050474;28;20079;-65
2022/10/17 06:27:55;;;;;;;6.25;1.42;;;20.80;72.90;;;;;;5050193;28;20098;-64
2022/10/17 06:30:23;;;;;;;4.60;1.40;;;20.80;72.90;;;;;;5049945;28;20020;-64
2022/10/17 06:32:52;;;;;;;7.68;1.50;;;20.80;73.00;;;;;;5034035;28;20025;-63
2022/10/17 06:35:21;;;;;;;6.50;1.42;;;20.80;73.00;;;;;;5052168;28;20025;-63
2022/10/17 06:37:50;;;;;;;8.20;1.90;;;20.80;72.70;;;;;;5050804;28;20121;-64
2022/10/17 06:40:18;;;;;;;7.15;1.90;;;20.80;72.80;;;;;;5033851;28;20021;-64
2022/10/17 06:42:47;;;;;;;4.15;1.23;;;20.80;72.80;;;;;;5033498;28;20053;-63
2022/10/17 06:45:45;;;;;;;4.80;1.42;;;20.80;72.80;;;;;;5046299;28;20472;-63
2022/10/17 06:48:31;;;;;;;7.60;1.63;;;20.90;72.80;;;;;;5029496;28;20075;-63
2022/10/17 06:51:14;;;;;;;5.20;1.25;;;20.80;72.90;;;;;;5030089;28;20034;-63
2022/10/17 06:53:50;;;;;;;8.93;1.75;;;20.80;73.00;;;;;;5030833;28;20021;-63
2022/10/17 06:56:47;;;;;;;5.03;1.25;;;20.80;73.10;;;;;;5023639;28;20060;-63
2022/10/17 06:59:36;;;;;;;7.38;1.60;;;20.80;73.20;;;;;;5030980;28;20436;-63
2022/10/17 07:02:22;;;;;;;9.50;1.52;;;20.80;73.30;;;;;;5029329;28;20044;-63
2022/10/17 07:04:52;;;;;;;6.93;1.60;;;20.80;73.20;;;;;;5014221;28;20029;-63
2022/10/17 07:07:20;;;;;;;9.60;1.52;;;20.80;73.20;;;;;;5029718;28;20041;-63
2022/10/17 07:09:48;;;;;;;4.80;1.35;;;20.70;73.10;;;;;;5031407;28;20503;-63
2022/10/17 07:12:18;;;;;;;7.93;1.45;;;20.70;73.20;;;;;;5029281;28;20439;-63
2022/10/17 07:14:49;;;;;;;6.25;1.50;;;20.70;73.30;;;;;;5029563;28;20025;-63
2022/10/17 07:17:18;;;;;;;6.95;1.42;;;20.80;73.40;;;;;;5028596;28;20069;-64
2022/10/17 07:19:47;;;;;;;5.35;1.25;;;20.70;73.30;;;;;;5029427;28;20023;-63
2022/10/17 07:22:17;;;;;;;6.05;1.65;;;20.70;73.30;;;;;;5031651;28;20104;-63
2022/10/17 07:24:48;;;;;;;8.10;1.60;;;20.80;73.40;;;;;;5046138;28;20380;-63
2022/10/17 07:27:23;;;;;;;6.82;1.77;;;20.80;74.00;;;;;;5045992;28;20037;-70
2022/10/17 07:29:52;;;;;;;8.10;1.60;;;20.80;73.50;;;;;;5061110;28;20036;-61
2022/10/17 07:32:36;;;;;;;6.10;1.23;;;20.80;73.90;;;;;;5048364;28;20080;-57
2022/10/17 07:35:06;;;;;;;13.10;1.88;;;20.80;73.90;;;;;;5045957;28;20221;-60
2022/10/17 07:37:34;;;;;;;7.10;1.58;;;20.80;73.80;;;;;;5044721;28;20399;-61
2022/10/17 07:40:05;;;;;;;9.32;1.70;;;20.80;73.90;;;;;;5039862;28;20064;-63
2022/10/17 07:42:36;;;;;;;8.93;1.70;;;20.80;73.80;;;;;;5042264;28;20103;-62
2022/10/17 07:45:07;;;;;;;7.85;1.73;;;20.80;74.00;;;;;;5033431;28;20283;-62
2022/10/17 07:47:35;;;;;;;11.75;1.63;;;20.80;74.00;;;;;;5044423;28;20385;-61
2022/10/17 07:50:08;;;;;;;6.50;1.58;;;20.80;74.00;;;;;;5029258;28;20041;-57
2022/10/17 07:52:36;;;;;;;11.02;1.55;;;20.80;73.90;;;;;;5036277;28;20076;-59
2022/10/17 07:55:05;;;;;;;6.97;1.98;;;20.80;73.60;;;;;;5048852;28;20027;-60
2022/10/17 07:57:33;;;;;;;8.30;1.80;;;20.80;73.80;;;;;;5048761;28;20020;-60
2022/10/17 08:00:01;;;;;;;8.23;2.20;;;20.70;73.60;;;;;;5041144;28;20318;-67
2022/10/17 08:02:39;;;;;;;7.53;1.60;;;20.80;74.30;;;;;;5049072;28;20115;-59
2022/10/17 08:05:08;;;;;;;8.77;1.70;;;20.70;74.20;;;;;;5048525;28;20036;-68
2022/10/17 08:07:36;;;;;;;10.27;1.98;;;20.80;74.50;;;;;;5061769;28;20064;-62
2022/10/17 08:10:05;;;;;;;8.25;2.00;;;20.80;74.60;;;;;;5030063;28;20049;-60
2022/10/17 08:12:33;;;;;;;8.90;1.92;;;20.80;74.30;;;;;;5056924;28;20025;-59
2022/10/17 08:15:02;;;;;;;8.07;1.75;;;20.80;74.20;;;;;;5054278;28;20078;-61
2022/10/17 08:17:30;;;;;;;9.40;2.10;;;20.80;74.00;;;;;;5059499;28;20012;-65
2022/10/17 08:19:59;;;;;;;7.00;1.55;;;20.80;74.10;;;;;;5049849;28;20028;-61
2022/10/17 08:22:27;;;;;;;6.50;1.88;;;20.70;74.10;;;;;;5049667;28;20025;-63
2022/10/17 08:24:56;;;;;;;6.95;1.80;;;20.80;74.10;;;;;;5049916;28;20025;-70
2022/10/17 08:27:26;;;;;;;7.10;1.90;;;20.80;74.00;;;;;;5064845;28;20127;-65
2022/10/17 08:29:55;;;;;;;7.72;2.10;;;20.80;74.00;;;;;;5049768;28;20032;-64
2022/10/17 08:32:26;;;;;;;8.70;2.08;;;20.80;74.20;;;;;;5044318;28;20112;-64
2022/10/17 08:34:55;;;;;;;9.63;2.25;;;20.70;74.00;;;;;;5046631;28;20021;-64
2022/10/17 08:37:24;;;;;;;10.07;2.00;;;20.70;74.00;;;;;;5063921;28;20499;-63
2022/10/17 08:39:52;;;;;;;6.97;1.85;;;20.80;74.10;;;;;;5049237;28;20472;-64
2022/10/17 08:42:45;;;;;;;11.85;2.50;;;20.70;74.00;;;;;;5038987;28;20444;-65
2022/10/17 08:45:34;;;;;;;9.23;2.05;;;20.70;74.00;;;;;;5041132;28;20048;-65
2022/10/17 08:48:10;;;;;;;6.78;2.00;;;20.70;74.00;;;;;;5028850;28;20037;-65
2022/10/17 08:50:45;;;;;;;7.03;1.75;;;20.70;74.10;;;;;;5044108;28;20032;-65
2022/10/17 08:54:06;;;;;;;9.93;2.72;;;20.60;74.10;;;;;;5048606;28;20071;-65
2022/10/17 08:56:44;;;;;;;7.53;1.70;;;20.60;74.00;;;;;;4981473;28;20034;-65
2022/10/17 08:59:22;;;;;;;6.63;1.60;;;20.60;74.10;;;;;;5030772;28;20104;-65
2022/10/17 09:01:56;;;;;;;5.80;1.70;;;20.60;74.10;;;;;;5029786;28;20030;-65
2022/10/17 09:04:46;;;;;;;9.77;1.92;;;20.60;74.10;;;;;;5029366;28;20076;-65
2022/10/17 09:07:47;;;;;;;7.35;1.75;;;20.60;74.10;;;;;;5045748;28;20045;-66
2022/10/17 09:10:39;;;;;;;7.82;1.80;;;20.60;74.10;;;;;;5033966;28;20021;-66
2022/10/17 09:13:23;;;;;;;9.23;1.60;;;20.60;74.10;;;;;;5056447;28;20044;-66
2022/10/17 09:16:06;;;;;;;8.05;1.92;;;20.60;74.10;;;;;;5038032;28;20492;-65
2022/10/17 09:18:57;;;;;;;8.10;2.28;;;20.60;74.00;;;;;;5033390;28;20025;-65
2022/10/17 09:21:51;;;;;;;6.13;1.88;;;20.60;74.00;;;;;;5066827;28;20048;-65
2022/10/17 09:24:40;;;;;;;7.07;2.40;;;20.60;73.80;;;;;;5048042;28;20029;-65
2022/10/17 09:27:22;;;;;;;5.63;1.40;;;20.60;73.90;;;;;;5032687;28;20175;-65
2022/10/17 09:30:16;;;;;;;6.22;2.00;;;20.60;73.80;;;;;;5049433;28;20460;-66
2022/10/17 09:32:46;;;;;;;6.85;1.92;;;20.60;73.70;;;;;;5044848;28;20041;-64
2022/10/17 09:35:16;;;;;;;9.85;1.70;;;20.60;73.60;;;;;;5050856;28;20126;-64
2022/10/17 09:37:45;;;;;;;5.63;1.67;;;20.60;73.70;;;;;;5051978;28;20017;-66
2022/10/17 09:40:24;;;;;;;8.80;1.80;;;20.60;73.70;;;;;;5038958;28;20053;-65
2022/10/17 09:42:53;;;;;;;8.25;1.80;;;20.60;73.60;;;;;;5052895;28;20144;-64
2022/10/17 09:45:25;;;;;;;7.43;1.67;;;20.60;73.60;;;;;;5051912;28;20104;-65
2022/10/17 09:48:15;;;;;;;8.07;1.80;;;20.60;73.60;;;;;;5067425;28;20124;-66
2022/10/17 09:50:46;;;;;;;9.35;2.05;;;20.60;73.60;;;;;;5038699;28;20033;-66
2022/10/17 09:53:30;;;;;;;6.97;1.70;;;20.60;73.60;;;;;;5050116;28;20021;-64
2022/10/17 09:56:01;;;;;;;8.55;1.77;;;20.60;73.60;;;;;;5044355;28;20026;-64
2022/10/17 09:59:05;;;;;;;8.30;1.67;;;20.60;73.60;;;;;;5039856;28;20079;-65
2022/10/17 10:01:33;;;;;;;4.90;1.23;;;20.60;73.70;;;;;;5013848;28;20133;-64
2022/10/17 10:04:10;;;;;;;6.60;1.60;;;20.50;73.70;;;;;;5042537;28;20037;-65
2022/10/17 10:06:41;;;;;;;7.90;1.88;;;20.60;73.70;;;;;;5051949;28;20100;-65
2022/10/17 10:09:24;;;;;;;8.93;2.05;;;20.50;73.80;;;;;;5050606;28;20025;-66
2022/10/17 10:11:57;;;;;;;6.40;1.60;;;20.50;73.90;;;;;;5052365;28;20029;-66
2022/10/17 10:14:38;;;;;;;5.60;1.38;;;20.50;74.00;;;;;;5051427;28;20380;-65
2022/10/17 10:17:38;;;;;;;8.98;2.10;;;20.50;74.10;;;;;;5066506;28;20037;-65
2022/10/17 10:20:27;;;;;;;6.55;1.90;;;20.50;74.30;;;;;;5047314;28;20029;-65
2022/10/17 10:23:17;;;;;;;10.50;1.95;;;20.60;74.40;;;;;;5047175;28;20021;-66
2022/10/17 10:26:18;;;;;;;8.45;1.73;;;20.50;74.30;;;;;;5063643;28;20108;-66
2022/10/17 10:29:19;;;;;;;11.55;2.00;;;20.50;74.40;;;;;;5037477;28;20523;-63
2022/10/17 10:31:48;;;;;;;4.93;1.33;;;20.60;74.40;;;;;;5046530;28;20146;-66
2022/10/17 10:34:29;;;;;;;5.13;1.42;;;20.60;74.90;;;;;;5034501;28;20025;-65
2022/10/17 10:37:06;;;;;;;7.60;2.00;;;20.60;74.80;;;;;;5051564;28;20032;-65
2022/10/17 10:40:01;;;;;;;7.45;1.70;;;20.60;74.70;;;;;;5044330;28;20029;-63
2022/10/17 10:42:38;;;;;;;6.78;1.73;;;20.70;75.20;;;;;;5036569;28;20399;-64
2022/10/17 10:45:15;;;;;;;8.32;1.45;;;20.70;75.40;;;;;;5045962;28;20031;-64
2022/10/17 10:47:57;;;;;;;6.43;1.60;;;20.70;75.30;;;;;;5030160;28;20499;-62
2022/10/17 10:50:31;;;;;;;5.30;1.27;;;20.70;75.40;;;;;;5048143;28;20033;-63
2022/10/17 10:53:24;;;;;;;8.27;1.80;;;20.80;75.60;;;;;;5048933;28;20017;-62
2022/10/17 10:56:04;;;;;;;7.90;2.03;;;20.80;75.20;;;;;;5048346;28;20103;-62
2022/10/17 10:58:53;;;;;;;8.27;1.73;;;20.80;75.60;;;;;;5047279;28;20021;-62
2022/10/17 11:01:45;;;;;;;12.38;2.05;;;20.80;75.10;;;;;;5049489;28;20092;-63
2022/10/17 11:04:20;;;;;;;9.15;2.22;;;20.80;75.20;;;;;;5047834;28;20029;-65
2022/10/17 11:06:54;;;;;;;5.80;1.60;;;20.70;75.90;;;;;;5031823;28;20037;-66
2022/10/17 11:09:44;;;;;;;12.75;2.50;;;20.70;76.00;;;;;;5049933;28;20037;-67
2022/10/17 11:12:22;;;;;;;8.80;1.90;;;20.70;76.50;;;;;;5048032;28;20128;-71
2022/10/17 11:14:56;;;;;;;12.40;2.25;;;20.70;76.50;;;;;;5052792;28;20033;-70
2022/10/17 11:17:36;;;;;;;8.48;1.80;;;20.70;76.50;;;;;;5053302;28;20338;-69
2022/10/17 11:20:11;;;;;;;8.32;1.60;;;20.70;76.30;;;;;;5034883;28;20017;-71
2022/10/17 11:22:51;;;;;;;7.07;1.75;;;20.80;76.20;;;;;;5059024;28;20032;-72
2022/10/17 11:25:32;;;;;;;13.45;3.35;;;20.80;76.50;;;;;;5050259;28;20029;-69
2022/10/17 11:28:02;;;;;;;9.90;2.80;;;20.80;76.80;;;;;;5046404;28;20071;-72
2022/10/17 11:31:03;;;;;;;11.60;3.33;;;20.80;77.10;;;;;;5048812;28;20546;-71
2022/10/17 11:33:44;;;;;;;12.25;3.08;;;20.80;76.60;;;;;;5042251;28;20029;-73
2022/10/17 11:36:16;;;;;;;13.33;3.10;;;20.80;76.20;;;;;;5049639;28;20495;-72
2022/10/17 11:38:56;;;;;;;10.30;2.35;;;20.80;76.00;;;;;;5049541;28;20675;-72
2022/10/17 11:41:39;;;;;;;12.63;3.25;;;20.80;76.00;;;;;;5048590;28;20059;-72
2022/10/17 11:44:16;;;;;;;11.02;2.95;;;20.80;76.00;;;;;;5049325;28;20462;-70
2022/10/17 11:46:49;;;;;;;11.48;2.72;;;20.80;75.80;;;;;;5038590;28;20388;-70
2022/10/17 11:49:26;;;;;;;10.98;2.80;;;20.80;75.70;;;;;;5029483;28;20106;-70
2022/10/17 11:52:06;;;;;;;10.27;2.83;;;20.80;75.60;;;;;;5032952;28;20057;-72
2022/10/17 11:54:52;;;;;;;14.48;3.40;;;20.80;76.00;;;;;;5055796;28;20017;-69
2022/10/17 11:57:42;;;;;;;12.23;3.13;;;20.80;76.20;;;;;;5042109;28;20025;-69
2022/10/17 12:00:34;;;;;;;10.25;2.85;;;20.80;75.90;;;;;;5035685;28;20029;-69
2022/10/17 12:03:31;;;;;;;9.18;2.97;;;20.80;75.90;;;;;;5044010;28;20515;-71
2022/10/17 12:06:18;;;;;;;10.98;2.65;;;20.80;75.60;;;;;;5060324;28;20033;-69
2022/10/17 12:09:26;;;;;;;8.63;2.58;;;20.80;75.60;;;;;;5038322;28;20037;-70
2022/10/17 12:11:56;;;;;;;11.18;2.55;;;20.80;76.00;;;;;;5039947;28;20099;-70
2022/10/17 12:14:41;;;;;;;11.65;2.92;;;20.80;75.60;;;;;;5040931;28;20028;-68
2022/10/17 12:17:30;;;;;;;11.82;2.83;;;20.80;75.90;;;;;;5045071;28;20057;-70
2022/10/17 12:20:23;;;;;;;11.55;2.65;;;20.80;76.20;;;;;;5030607;28;20021;-69
2022/10/17 12:22:59;;;;;;;10.25;2.67;;;20.80;77.50;;;;;;5051138;28;20045;-71
2022/10/17 12:25:32;;;;;;;11.10;2.10;;;20.90;77.80;;;;;;5037581;28;20024;-71
2022/10/17 12:28:06;;;;;;;9.57;1.92;;;20.90;77.90;;;;;;5040408;28;20369;-71
2022/10/17 12:30:35;;;;;;;10.32;2.60;;;20.90;77.40;;;;;;5047359;28;20033;-69
2022/10/17 12:33:23;;;;;;;9.45;2.33;;;20.90;77.20;;;;;;5034078;28;20017;-69
2022/10/17 12:36:12;;;;;;;9.60;2.60;;;20.90;77.20;;;;;;5045163;28;20124;-69
2022/10/17 12:38:41;;;;;;;9.63;2.35;;;20.90;76.90;;;;;;5021224;28;20369;-71
2022/10/17 12:41:09;;;;;;;9.32;2.33;;;20.90;77.00;;;;;;5029476;28;20021;-71
2022/10/17 12:43:49;;;;;;;10.32;2.05;;;20.90;76.90;;;;;;5031128;28;20099;-71
2022/10/17 12:46:48;;;;;;;8.57;2.70;;;20.90;76.90;;;;;;5032330;28;20097;-70
2022/10/17 12:49:39;;;;;;;9.80;2.40;;;20.90;76.70;;;;;;5050721;28;20472;-70
2022/10/17 12:52:33;;;;;;;9.70;2.15;;;20.90;76.60;;;;;;5054720;28;20029;-70
2022/10/17 12:55:09;;;;;;;6.15;1.80;;;20.90;76.80;;;;;;5049701;28;20350;-69
2022/10/17 12:57:38;;;;;;;7.57;1.90;;;20.80;76.60;;;;;;5051297;28;20060;-72
2022/10/17 13:00:21;;;;;;;7.57;2.10;;;20.90;76.60;;;;;;5034955;28;20550;-71
2022/10/17 13:02:53;;;;;;;12.43;2.35;;;20.80;76.50;;;;;;5035260;28;20040;-69
2022/10/17 13:05:29;;;;;;;;;;;20.80;76.30;;;;;;5041255;28;20021;-72
2022/10/17 13:08:00;;;;;;;9.27;2.30;;;20.80;76.30;;;;;;5046260;28;20373;-72
2022/10/17 13:10:31;;;;;;;6.13;1.88;;;20.80;76.30;;;;;;5041485;28;20122;-70
2022/10/17 13:13:25;;;;;;;6.60;1.67;;;20.80;76.10;;;;;;5065729;28;20058;-70
2022/10/17 13:15:54;;;;;;;9.52;2.33;;;20.80;75.90;;;;;;5047160;28;20029;-72
2022/10/17 13:18:27;;;;;;;8.20;1.95;;;20.80;75.90;;;;;;5063273;28;20116;-72
2022/10/17 13:20:59;;;;;;;5.47;1.38;;;20.80;76.10;;;;;;5039094;28;20025;-73
2022/10/17 13:23:34;;;;;;;9.85;1.88;;;20.80;75.90;;;;;;5037698;28;20466;-72
2022/10/17 13:26:04;;;;;;;8.07;1.85;;;20.80;75.90;;;;;;5040586;28;20030;-71
2022/10/17 13:28:32;;;;;;;7.00;1.52;;;20.80;75.80;;;;;;5035906;28;20090;-71
2022/10/17 13:31:01;;;;;;;9.00;1.80;;;20.80;76.00;;;;;;5048990;28;20108;-71
2022/10/17 13:33:38;;;;;;;6.90;1.60;;;20.80;75.90;;;;;;5051796;28;20024;-71